Oakdale, WI (54649)

11:56 PM CDT on August 23, 2016 (GMT -0500)
Volk | | Change Station

Elev 909 ft 43.94 °N, 90.25 °W | Updated 21 minutes ago

Light Thunderstorms and Rain
Light Thunderstorm Rain
70 °F
Feels Like 70 °F
N
4
Wind Variable Wind from SSW

Today
High -- | Low -- °F
--% Chance of Precip.
Yesterday
High -- | Low -- °F
Precip. -- in
Pressure 29.98 in
Visibility 9.0 miles
Clouds Few 800 ft
Mostly Cloudy 2200 ft
Dew Point 66 °F
Humidity 88%
Rainfall 0.00 in
Snow Depth Not available.
6:15 AM 7:51 PM
Waning Gibbous, 61% visible
SPECI KVOK 240435Z 21003KT 9SM -TSRA FEW008 BKN022CB 21/19 A2998 RMK AO2A TSB11 PRESRR
Pressure 29.98 in
Visibility 9.0 miles
Clouds Few 800 ft
Mostly Cloudy 2200 ft
Dew Point 66 °F
Humidity 88%
Rainfall 0.00 in
Snow Depth Not available.
6:15 AM 7:51 PM
Waning Gibbous, 61% visible
SPECI KVOK 240435Z 21003KT 9SM -TSRA FEW008 BKN022CB 21/19 A2998 RMK AO2A TSB11 PRESRR

10-Day Weather Forecast

Almanac

Astronomy

Aug. 23, 2016 Rise Set
Actual Time
Civil Twilight
Nautical Twilight
Astronomical Twilight
Moon
Length of Visible Light
Length of Day
Tomorrow will be .
, % of the Moon is Illuminated

Today's Extremes

State Highs State Lows

Community

WunderPhotos

Upload Photos

1,934,554 photos uploaded!

WunderBlog® & News

Nearby

Air Quality

  Air Quality AQ Index Pollutant
Not available.

Snow Depth

Station Depth Elevation

Earthquake Activity

City Distance Mag. Time & Date
Minimum magnitude displayed is 2.5.

Coastal Water Temperatures

Place Temperature

Stations

Nearby Weather Stations

Station Location Temp. Windchill Dew Point Humidity Wind Precip. Elev Updated Type
                   

Watches & Warnings

There are currently no watches in effect.